Time;durP1;ratioP1;P1;durP2;ratioP2;P2;SDS_P1;SDS_P2;PMS_P1;PMS_P2;Temp;Humidity;BMP_temperature;BMP_pressure;BME280_temperature;BME280_humidity;BME280_pressure;Samples;Min_cycle;Max_cycle;Signal;HPM_P1;HPM_P2
2022/01/31 00:01:36;;;;;;;5.10;4.27;;;2.70;1.00;;;;;;5070795;28;20202;-72
2022/01/31 00:04:03;;;;;;;5.70;4.10;;;2.70;1.00;;;;;;5070259;28;20693;-69
2022/01/31 00:06:30;;;;;;;6.07;4.43;;;2.70;1.00;;;;;;5071241;28;20312;-71
2022/01/31 00:08:58;;;;;;;6.67;4.77;;;2.80;1.00;;;;;;5070906;28;20315;-72
2022/01/31 00:11:26;;;;;;;6.57;4.63;;;2.80;1.00;;;;;;5070509;28;20259;-71
2022/01/31 00:14:01;;;;;;;5.73;4.80;;;2.70;1.00;;;;;;5070799;28;20210;-72
2022/01/31 00:16:32;;;;;;;5.50;3.50;;;2.80;1.00;;;;;;5070786;28;20287;-73
2022/01/31 00:18:59;;;;;;;5.60;3.93;;;2.80;1.00;;;;;;5070689;28;20226;-72
2022/01/31 00:21:26;;;;;;;6.90;4.00;;;2.90;1.00;;;;;;5070676;28;20752;-72
2022/01/31 00:23:53;;;;;;;7.27;4.87;;;2.80;1.00;;;;;;5074199;28;20673;-71
2022/01/31 00:26:22;;;;;;;6.70;4.20;;;2.70;1.00;;;;;;5074425;28;20647;-71
2022/01/31 00:28:49;;;;;;;6.70;4.77;;;2.80;1.00;;;;;;5074467;28;20202;-72
2022/01/31 00:31:16;;;;;;;5.87;4.30;;;2.80;1.00;;;;;;5074192;28;20206;-71
2022/01/31 00:33:43;;;;;;;9.83;6.07;;;2.80;1.00;;;;;;5074607;28;20661;-73
2022/01/31 00:36:10;;;;;;;7.63;5.27;;;2.80;1.00;;;;;;5074174;28;20206;-71
2022/01/31 00:38:37;;;;;;;6.57;4.27;;;2.80;1.00;;;;;;5074294;28;20252;-71
2022/01/31 00:41:04;;;;;;;6.47;4.73;;;2.80;1.00;;;;;;5073923;28;20237;-69
2022/01/31 00:43:35;;;;;;;6.90;4.47;;;2.80;1.00;;;;;;5074241;28;20255;-69
2022/01/31 00:46:10;;;;;;;7.50;4.90;;;2.80;1.00;;;;;;5074345;28;20294;-70
2022/01/31 00:48:42;;;;;;;7.73;4.33;;;2.80;1.00;;;;;;5074259;28;20246;-69
2022/01/31 00:51:09;;;;;;;10.43;4.87;;;2.80;1.00;;;;;;5073671;28;20202;-69
2022/01/31 00:53:36;;;;;;;5.93;4.23;;;2.70;1.00;;;;;;5074055;28;20554;-70
2022/01/31 00:56:03;;;;;;;7.40;4.83;;;2.80;1.00;;;;;;5073636;28;20198;-68
2022/01/31 00:58:30;;;;;;;5.83;4.23;;;2.80;1.00;;;;;;5074676;28;20267;-68
2022/01/31 01:00:59;;;;;;;7.77;4.97;;;2.80;1.00;;;;;;5074416;28;20229;-69
2022/01/31 01:03:26;;;;;;;6.07;4.23;;;2.90;1.00;;;;;;5073747;28;20202;-68
2022/01/31 01:05:53;;;;;;;7.43;4.80;;;2.90;1.00;;;;;;5074030;28;20259;-69
2022/01/31 01:08:20;;;;;;;7.03;3.90;;;2.90;1.00;;;;;;5073383;28;20285;-71
2022/01/31 01:10:47;;;;;;;7.20;4.37;;;2.90;1.00;;;;;;5073762;28;20202;-71
2022/01/31 01:13:14;;;;;;;6.43;4.07;;;2.90;1.00;;;;;;5073603;28;20271;-71
2022/01/31 01:15:41;;;;;;;7.83;5.13;;;2.90;1.00;;;;;;5073802;28;20201;-71
2022/01/31 01:18:10;;;;;;;6.60;4.57;;;2.90;1.00;;;;;;5073504;28;20256;-70
2022/01/31 01:20:37;;;;;;;8.00;4.77;;;2.90;1.00;;;;;;5073381;28;20276;-70
2022/01/31 01:23:04;;;;;;;5.37;3.90;;;2.90;1.00;;;;;;5073056;28;20202;-69
2022/01/31 01:25:33;;;;;;;7.00;4.67;;;2.90;1.00;;;;;;5073772;28;20199;-69
2022/01/31 01:28:00;;;;;;;8.17;4.97;;;2.90;1.00;;;;;;5074030;28;20206;-69
2022/01/31 01:30:27;;;;;;;7.17;4.80;;;2.80;1.00;;;;;;5073619;28;20198;-69
2022/01/31 01:33:04;;;;;;;6.33;4.80;;;2.90;1.00;;;;;;5072931;28;20202;-69
2022/01/31 01:35:34;;;;;;;8.43;5.03;;;2.90;1.00;;;;;;5073235;28;20210;-68
2022/01/31 01:38:06;;;;;;;8.00;4.50;;;2.90;1.00;;;;;;5073442;28;20210;-68
2022/01/31 01:40:34;;;;;;;6.70;4.13;;;2.90;1.00;;;;;;5073061;28;20245;-69
2022/01/31 01:43:01;;;;;;;8.13;4.67;;;2.90;1.00;;;;;;5073702;28;20198;-71
2022/01/31 01:45:28;;;;;;;5.60;4.00;;;2.90;1.00;;;;;;5073298;28;20210;-72
2022/01/31 01:47:55;;;;;;;5.43;3.60;;;3.00;37.90;;;;;;5073251;28;20255;-71
2022/01/31 01:50:22;;;;;;;7.80;4.93;;;2.90;31.80;;;;;;5072561;28;20210;-71
2022/01/31 01:52:51;;;;;;;6.10;4.67;;;3.00;29.90;;;;;;5072960;28;20252;-71
2022/01/31 01:55:19;;;;;;;4.70;4.10;;;3.00;29.70;;;;;;5072867;28;20558;-71
2022/01/31 01:57:46;;;;;;;7.47;4.27;;;3.00;15.90;;;;;;5073090;28;20203;-68
2022/01/31 02:00:18;;;;;;;6.77;4.43;;;3.00;19.40;;;;;;5072424;28;20708;-71
2022/01/31 02:02:46;;;;;;;6.73;3.70;;;3.10;14.50;;;;;;5072879;28;20203;-71
2022/01/31 02:05:13;;;;;;;6.00;3.33;;;3.10;8.90;;;;;;5072253;28;20633;-71
2022/01/31 02:07:41;;;;;;;5.17;4.00;;;3.20;17.60;;;;;;5073034;28;20346;-72
2022/01/31 02:10:10;;;;;;;4.33;3.43;;;3.10;8.60;;;;;;5072512;28;20202;-78
2022/01/31 02:12:41;;;;;;;7.20;3.97;;;3.10;10.20;;;;;;5072750;28;20251;-72
2022/01/31 02:15:09;;;;;;;5.23;4.03;;;3.10;1.00;;;;;;5072348;28;20202;-73
2022/01/31 02:17:37;;;;;;;5.43;3.33;;;3.10;1.00;;;;;;5072636;28;20210;-73
2022/01/31 02:20:06;;;;;;;7.40;5.20;;;3.10;1.00;;;;;;5072063;28;20234;-73
2022/01/31 02:22:34;;;;;;;7.53;4.70;;;3.10;3.70;;;;;;5072801;28;20260;-73
2022/01/31 02:25:02;;;;;;;5.83;4.00;;;3.10;16.40;;;;;;5072094;28;20218;-70
2022/01/31 02:27:32;;;;;;;4.27;3.73;;;3.20;57.30;;;;;;5073296;28;20616;-73
2022/01/31 02:29:59;;;;;;;5.43;3.67;;;3.20;59.50;;;;;;5072756;28;20202;-76
2022/01/31 02:32:27;;;;;;;8.97;3.87;;;3.20;58.20;;;;;;5072450;28;20202;-77
2022/01/31 02:34:54;;;;;;;5.70;4.23;;;3.20;1.00;;;;;;5072266;28;20727;-75
2022/01/31 02:37:21;;;;;;;6.20;4.13;;;3.20;1.00;;;;;;5072011;28;20616;-73
2022/01/31 02:39:50;;;;;;;6.47;4.20;;;3.20;1.00;;;;;;5072036;28;20767;-76
2022/01/31 02:42:17;;;;;;;7.90;4.90;;;3.30;1.00;;;;;;5071838;28;20202;-76
2022/01/31 02:44:45;;;;;;;7.33;4.50;;;3.20;1.00;;;;;;5071684;28;20206;-75
2022/01/31 02:47:16;;;;;;;5.97;4.17;;;3.10;1.00;;;;;;5071696;28;20289;-74
2022/01/31 02:49:49;;;;;;;5.63;4.00;;;3.20;1.00;;;;;;5072002;28;20576;-75
2022/01/31 02:52:18;;;;;;;7.00;3.50;;;3.10;1.00;;;;;;5071570;28;20206;-75
2022/01/31 02:54:45;;;;;;;4.57;3.77;;;3.10;1.00;;;;;;5072037;28;20205;-76
2022/01/31 02:57:14;;;;;;;7.07;4.20;;;3.20;1.00;;;;;;5071933;28;20202;-76
2022/01/31 02:59:41;;;;;;;6.40;3.50;;;3.20;1.00;;;;;;5072007;28;20202;-77
2022/01/31 03:02:08;;;;;;;7.83;4.20;;;3.20;1.00;;;;;;5071506;28;20206;-77
2022/01/31 03:04:35;;;;;;;4.77;4.27;;;3.30;1.00;;;;;;5071506;28;20206;-77
2022/01/31 03:07:02;;;;;;;8.20;5.03;;;3.30;1.00;;;;;;5071710;28;20264;-75
2022/01/31 03:09:29;;;;;;;7.00;4.43;;;3.30;1.00;;;;;;5071921;28;20203;-75
2022/01/31 03:11:56;;;;;;;4.90;4.07;;;3.40;1.00;;;;;;5071747;28;20661;-72
2022/01/31 03:14:24;;;;;;;4.43;3.23;;;3.40;1.00;;;;;;5071372;28;20210;-74
2022/01/31 03:16:51;;;;;;;7.70;4.93;;;3.40;1.00;;;;;;5071230;28;20689;-73
2022/01/31 03:19:20;;;;;;;4.60;3.77;;;3.40;1.00;;;;;;5071192;28;20198;-74
2022/01/31 03:21:47;;;;;;;5.73;3.77;;;3.50;1.00;;;;;;5071279;28;20233;-75
2022/01/31 03:24:15;;;;;;;6.40;4.33;;;3.60;1.00;;;;;;5070856;28;20674;-74
2022/01/31 03:26:42;;;;;;;4.87;3.73;;;3.50;1.00;;;;;;5071517;28;20202;-73
2022/01/31 03:29:09;;;;;;;7.13;4.53;;;3.60;1.00;;;;;;5070983;28;20206;-80
2022/01/31 03:31:38;;;;;;;7.33;4.57;;;3.60;1.00;;;;;;5071405;28;20252;-72
2022/01/31 03:34:05;;;;;;;5.57;3.77;;;3.60;1.00;;;;;;5070783;28;20711;-72
2022/01/31 03:36:32;;;;;;;8.50;5.30;;;3.70;1.00;;;;;;5071059;28;20619;-72
2022/01/31 03:38:59;;;;;;;5.77;4.27;;;3.70;1.00;;;;;;5071585;28;20202;-73
2022/01/31 03:41:26;;;;;;;5.67;4.00;;;3.70;1.00;;;;;;5070735;28;20257;-74
2022/01/31 03:43:54;;;;;;;5.63;4.17;;;3.70;1.00;;;;;;5071129;28;20248;-76
2022/01/31 03:46:21;;;;;;;4.93;3.87;;;3.80;1.00;;;;;;5070452;28;20677;-78
2022/01/31 03:48:50;;;;;;;6.23;3.57;;;3.80;1.00;;;;;;5071129;28;20670;-78
2022/01/31 03:51:17;;;;;;;5.03;4.37;;;3.80;1.00;;;;;;5070755;28;20202;-76
2022/01/31 03:53:44;;;;;;;9.50;3.97;;;3.80;1.00;;;;;;5071283;28;20619;-76
2022/01/31 03:56:11;;;;;;;5.03;4.20;;;3.80;1.00;;;;;;5070697;28;20260;-76
2022/01/31 03:58:39;;;;;;;7.00;4.87;;;3.80;1.00;;;;;;5071162;28;20228;-76
2022/01/31 04:01:06;;;;;;;4.40;3.43;;;3.80;1.00;;;;;;5070308;28;20234;-75
2022/01/31 04:03:34;;;;;;;4.87;3.83;;;3.80;1.00;;;;;;5070948;28;20206;-76
2022/01/31 04:06:03;;;;;;;5.07;3.60;;;3.80;1.00;;;;;;5071152;28;20297;-69
2022/01/31 04:08:30;;;;;;;4.87;3.67;;;3.90;1.00;;;;;;5071301;28;20259;-74
2022/01/31 04:10:57;;;;;;;7.27;5.13;;;3.90;1.00;;;;;;5071201;28;20206;-75
2022/01/31 04:13:26;;;;;;;4.93;3.77;;;3.90;1.00;;;;;;5070385;28;20206;-77
2022/01/31 04:15:53;;;;;;;5.50;3.70;;;3.90;1.00;;;;;;5070434;28;20213;-75
2022/01/31 04:18:20;;;;;;;5.37;4.33;;;3.90;1.00;;;;;;5070384;28;20670;-77
2022/01/31 04:20:47;;;;;;;6.87;5.07;;;3.90;1.00;;;;;;5070813;28;20230;-77
2022/01/31 04:23:18;;;;;;;6.17;4.30;;;3.90;1.00;;;;;;5070190;28;20351;-69
2022/01/31 04:25:52;;;;;;;6.00;4.07;;;3.90;1.00;;;;;;5070579;28;20213;-74
2022/01/31 04:28:22;;;;;;;6.67;4.30;;;3.90;1.00;;;;;;5070080;28;20198;-74
2022/01/31 04:30:55;;;;;;;5.17;4.03;;;3.90;1.00;;;;;;5070583;28;20233;-75
2022/01/31 04:33:23;;;;;;;5.53;4.03;;;4.00;1.00;;;;;;5070229;28;20343;-78
2022/01/31 04:35:50;;;;;;;6.57;4.33;;;4.00;1.00;;;;;;5070886;28;20265;-76
2022/01/31 04:38:18;;;;;;;7.53;4.40;;;4.00;1.00;;;;;;5070128;28;20670;-75
2022/01/31 04:40:45;;;;;;;6.07;3.80;;;4.00;1.00;;;;;;5070334;28;20234;-75
2022/01/31 04:43:12;;;;;;;7.37;4.87;;;4.00;1.00;;;;;;5070200;28;20263;-76
2022/01/31 04:45:46;;;;;;;5.30;4.00;;;3.90;1.00;;;;;;5070640;28;20199;-75
2022/01/31 04:48:15;;;;;;;7.87;5.40;;;4.00;1.00;;;;;;5070126;28;20206;-76
2022/01/31 04:50:42;;;;;;;5.47;4.20;;;4.00;1.00;;;;;;5070502;28;20206;-72
2022/01/31 04:53:09;;;;;;;6.20;4.93;;;4.00;1.00;;;;;;5069929;28;20206;-74
2022/01/31 04:55:38;;;;;;;5.60;4.93;;;4.00;1.00;;;;;;5070298;28;20198;-74
2022/01/31 04:58:06;;;;;;;7.40;4.43;;;4.10;1.00;;;;;;5070011;28;20248;-73
2022/01/31 05:00:33;;;;;;;4.83;3.73;;;4.10;1.00;;;;;;5070376;28;20230;-72
2022/01/31 05:03:00;;;;;;;5.77;4.23;;;4.10;1.00;;;;;;5070496;28;20206;-71
2022/01/31 05:05:27;;;;;;;5.40;4.30;;;4.10;1.00;;;;;;5070099;28;20264;-71
2022/01/31 05:07:55;;;;;;;6.67;5.67;;;4.10;1.00;;;;;;5070795;28;20206;-72
2022/01/31 05:10:22;;;;;;;8.00;5.33;;;4.10;1.00;;;;;;5073573;28;20206;-74
2022/01/31 05:12:50;;;;;;;7.83;4.43;;;4.20;1.00;;;;;;5074149;28;20243;-75
2022/01/31 05:15:17;;;;;;;8.67;5.33;;;4.20;1.00;;;;;;5073466;28;20198;-76
2022/01/31 05:17:44;;;;;;;5.60;4.17;;;4.20;1.00;;;;;;5074032;28;20267;-75
2022/01/31 05:20:12;;;;;;;5.77;4.27;;;4.20;1.00;;;;;;5073451;28;20259;-73
2022/01/31 05:22:39;;;;;;;6.97;5.23;;;4.20;1.00;;;;;;5084248;28;20243;-75
2022/01/31 05:25:07;;;;;;;7.47;5.97;;;4.30;1.00;;;;;;5086043;28;20214;-73
2022/01/31 05:27:34;;;;;;;6.63;5.80;;;4.30;1.00;;;;;;5093394;28;20660;-74
2022/01/31 05:30:04;;;;;;;6.57;4.50;;;4.30;1.00;;;;;;5086766;28;20661;-74
2022/01/31 05:32:31;;;;;;;8.13;6.17;;;4.30;1.00;;;;;;5093566;28;20206;-70
2022/01/31 05:35:01;;;;;;;7.07;4.90;;;4.30;1.00;;;;;;5093915;28;20255;-75
2022/01/31 05:37:28;;;;;;;8.50;6.13;;;4.30;1.00;;;;;;5093005;28;20205;-75
2022/01/31 05:39:55;;;;;;;5.93;4.90;;;4.30;1.00;;;;;;5091925;28;20738;-74
2022/01/31 05:42:21;;;;;;;8.53;5.47;;;4.30;1.00;;;;;;5091840;28;20233;-75
2022/01/31 05:44:48;;;;;;;7.77;5.63;;;4.30;1.00;;;;;;5093533;28;20259;-74
2022/01/31 05:47:17;;;;;;;6.13;4.43;;;4.30;1.00;;;;;;5092874;28;20258;-75
2022/01/31 05:49:44;;;;;;;6.57;5.37;;;4.30;1.00;;;;;;5093203;28;20239;-76
2022/01/31 05:52:11;;;;;;;6.77;4.60;;;4.30;1.00;;;;;;5092676;28;20214;-77
2022/01/31 05:54:40;;;;;;;6.83;4.50;;;4.30;1.00;;;;;;5093148;28;20209;-77
2022/01/31 05:57:08;;;;;;;9.10;6.23;;;4.30;1.00;;;;;;5091956;28;20209;-77
2022/01/31 05:59:38;;;;;;;8.83;4.73;;;4.30;1.00;;;;;;5092972;28;20258;-77
2022/01/31 06:02:05;;;;;;;6.33;3.93;;;4.30;1.00;;;;;;5092195;28;20777;-77
2022/01/31 06:04:34;;;;;;;8.13;5.40;;;4.30;1.00;;;;;;5092833;28;20673;-75
2022/01/31 06:07:01;;;;;;;5.83;4.43;;;4.30;1.00;;;;;;5093326;28;20206;-76
2022/01/31 06:09:31;;;;;;;5.87;4.40;;;4.30;1.00;;;;;;5093203;28;20692;-76
2022/01/31 06:12:01;;;;;;;5.63;4.00;;;4.30;1.00;;;;;;5092546;28;20208;-76
2022/01/31 06:14:28;;;;;;;7.20;4.77;;;4.30;1.00;;;;;;5093028;28;20250;-76
2022/01/31 06:16:55;;;;;;;6.63;5.53;;;4.30;1.00;;;;;;5088410;28;20214;-75
2022/01/31 06:19:22;;;;;;;7.80;5.10;;;4.30;1.00;;;;;;5092571;28;20206;-76
2022/01/31 06:21:51;;;;;;;5.73;4.40;;;4.30;1.00;;;;;;5092703;28;20229;-75
2022/01/31 06:24:18;;;;;;;7.10;5.47;;;4.40;1.00;;;;;;5091860;28;20210;-75
2022/01/31 06:26:45;;;;;;;7.47;5.33;;;4.40;1.00;;;;;;5092216;28;20262;-75
2022/01/31 06:29:12;;;;;;;7.97;5.50;;;4.40;1.00;;;;;;5092079;28;20210;-74
2022/01/31 06:31:39;;;;;;;7.50;5.60;;;4.30;1.00;;;;;;5092168;28;20209;-74
2022/01/31 06:34:06;;;;;;;8.27;5.40;;;4.40;1.00;;;;;;5091887;28;20255;-72
2022/01/31 06:36:33;;;;;;;6.13;4.43;;;4.40;1.00;;;;;;5092315;28;20255;-72
2022/01/31 06:39:01;;;;;;;8.07;4.93;;;4.40;1.00;;;;;;5092452;28;20205;-75
2022/01/31 06:41:28;;;;;;;7.53;5.43;;;4.40;1.00;;;;;;5092110;28;20320;-76
2022/01/31 06:43:56;;;;;;;6.03;5.23;;;4.40;1.00;;;;;;5091854;28;20213;-76
2022/01/31 06:46:23;;;;;;;6.17;4.77;;;4.40;1.00;;;;;;5091830;28;20235;-76
2022/01/31 06:48:50;;;;;;;7.13;5.40;;;4.40;1.00;;;;;;5092151;28;20209;-74
2022/01/31 06:51:17;;;;;;;5.23;4.30;;;4.40;1.00;;;;;;5091700;28;20266;-75
2022/01/31 06:53:48;;;;;;;6.03;4.23;;;4.40;1.00;;;;;;5091786;28;20215;-73
2022/01/31 06:56:17;;;;;;;7.90;4.93;;;4.40;1.00;;;;;;5091120;28;20651;-74
2022/01/31 06:58:44;;;;;;;6.87;4.97;;;4.40;1.00;;;;;;5091673;28;20236;-74
2022/01/31 07:01:11;;;;;;;8.70;6.60;;;4.50;1.00;;;;;;5091667;28;20636;-74
2022/01/31 07:03:40;;;;;;;6.00;5.37;;;4.50;1.00;;;;;;5091664;28;20205;-74
2022/01/31 07:06:07;;;;;;;6.73;5.30;;;4.50;1.00;;;;;;5091303;28;20259;-74
2022/01/31 07:08:34;;;;;;;6.40;5.80;;;4.50;1.00;;;;;;5091607;28;20201;-73
2022/01/31 07:11:01;;;;;;;4.87;4.23;;;4.50;1.00;;;;;;5090409;28;20677;-73
2022/01/31 07:13:38;;;;;;;6.40;4.73;;;4.40;13.50;;;;;;5092178;28;20210;-75
2022/01/31 07:16:06;;;;;;;5.40;4.60;;;4.40;73.90;;;;;;5091146;28;20243;-74
2022/01/31 07:18:34;;;;;;;6.73;4.63;;;4.40;99.50;;;;;;5091596;28;20624;-76
2022/01/31 07:21:02;;;;;;;7.93;4.50;;;4.40;99.90;;;;;;5091308;28;20202;-71
2022/01/31 07:23:39;;;;;;;5.83;4.57;;;4.40;99.90;;;;;;5091423;28;20266;-75
2022/01/31 07:26:06;;;;;;;7.10;5.23;;;4.40;99.90;;;;;;5090786;28;20193;-73
2022/01/31 07:28:34;;;;;;;5.73;4.03;;;4.40;99.90;;;;;;5091289;28;20209;-72
2022/01/31 07:31:01;;;;;;;7.10;4.60;;;4.40;99.90;;;;;;5090589;28;20634;-71
2022/01/31 07:33:28;;;;;;;6.90;4.23;;;4.40;99.90;;;;;;5091412;28;20750;-74
2022/01/31 07:35:55;;;;;;;6.07;4.63;;;4.50;99.90;;;;;;5090770;28;20209;-74
2022/01/31 07:38:23;;;;;;;5.83;4.63;;;4.50;99.90;;;;;;5090598;28;20210;-74
2022/01/31 07:40:51;;;;;;;5.63;4.60;;;4.50;99.90;;;;;;5090925;28;20210;-74
2022/01/31 07:43:18;;;;;;;6.57;4.40;;;4.50;99.90;;;;;;5090874;28;20233;-76
2022/01/31 07:45:46;;;;;;;5.80;3.97;;;4.50;99.90;;;;;;5090855;28;20727;-73
2022/01/31 07:48:13;;;;;;;5.77;4.43;;;4.60;99.90;;;;;;5090707;28;20209;-74
2022/01/31 07:50:40;;;;;;;8.57;5.20;;;4.60;99.90;;;;;;5091038;28;20278;-77
2022/01/31 07:53:09;;;;;;;6.23;4.30;;;4.60;99.90;;;;;;5090692;28;20209;-77
2022/01/31 07:55:36;;;;;;;6.53;4.93;;;4.60;99.90;;;;;;5090779;28;20251;-74
2022/01/31 07:58:03;;;;;;;6.47;3.60;;;4.70;99.90;;;;;;5090978;28;20213;-77
2022/01/31 08:00:30;;;;;;;4.33;3.93;;;4.70;99.90;;;;;;5091405;28;20556;-76
2022/01/31 08:02:59;;;;;;;4.33;3.90;;;4.70;99.90;;;;;;5091195;28;20240;-77
2022/01/31 08:05:26;;;;;;;6.17;4.83;;;4.70;99.90;;;;;;5087197;28;20220;-73
2022/01/31 08:07:53;;;;;;;5.17;4.17;;;4.80;99.90;;;;;;5070965;28;20210;-73
2022/01/31 08:10:20;;;;;;;5.30;3.60;;;4.80;99.90;;;;;;5072435;28;20252;-72
2022/01/31 08:12:47;;;;;;;5.93;4.27;;;4.80;99.90;;;;;;5075697;28;20214;-72
2022/01/31 08:15:22;;;;;;;5.73;4.27;;;4.80;99.90;;;;;;5076054;28;20730;-72
2022/01/31 08:17:49;;;;;;;5.83;5.30;;;4.90;99.90;;;;;;5081223;28;20227;-72
2022/01/31 08:20:17;;;;;;;5.30;4.07;;;4.90;99.90;;;;;;5090256;28;20570;-72
2022/01/31 08:22:44;;;;;;;5.67;4.00;;;5.00;99.90;;;;;;5076272;28;20237;-72
2022/01/31 08:25:14;;;;;;;6.50;4.83;;;5.00;99.90;;;;;;5072383;28;20235;-72
2022/01/31 08:27:45;;;;;;;4.70;4.30;;;5.00;99.90;;;;;;5075537;28;20212;-72
2022/01/31 08:30:18;;;;;;;6.33;4.67;;;5.10;99.90;;;;;;5078823;28;20571;-73
2022/01/31 08:32:46;;;;;;;5.80;4.77;;;5.20;99.90;;;;;;5083168;28;20245;-72
2022/01/31 08:38:00;;;;;;;5.90;4.20;;;5.40;99.90;;;;;;5083067;28;20216;-72
2022/01/31 08:40:27;;;;;;;5.10;4.13;;;5.40;68.80;;;;;;5086316;28;20208;-74
2022/01/31 08:42:54;;;;;;;4.97;3.73;;;5.40;99.90;;;;;;5081069;28;20237;-71
2022/01/31 08:45:21;;;;;;;4.60;4.20;;;5.50;42.30;;;;;;5091747;28;20690;-72
2022/01/31 08:47:48;;;;;;;5.03;4.40;;;5.40;99.90;;;;;;5085791;28;20205;-70
2022/01/31 08:50:15;;;;;;;4.60;4.13;;;5.40;67.80;;;;;;5088322;28;20209;-73
2022/01/31 08:52:42;;;;;;;5.67;5.10;;;5.40;24.50;;;;;;5083434;28;20737;-72
2022/01/31 08:55:12;;;;;;;4.77;4.27;;;5.40;95.30;;;;;;5091127;28;20628;-72
2022/01/31 08:57:39;;;;;;;6.70;5.33;;;5.50;68.50;;;;;;5090618;28;20259;-70
2022/01/31 09:00:07;;;;;;;7.30;5.70;;;5.50;1.00;;;;;;5093060;28;20741;-73
2022/01/31 09:02:40;;;;;;;5.97;5.07;;;5.50;1.00;;;;;;5093393;28;20233;-72
2022/01/31 09:05:08;;;;;;;5.63;5.03;;;5.50;50.20;;;;;;5075799;28;20765;-73
2022/01/31 09:07:35;;;;;;;5.80;4.40;;;5.60;18.60;;;;;;5075020;28;20206;-71
2022/01/31 09:10:02;;;;;;;8.03;5.00;;;5.60;30.70;;;;;;5093137;28;20206;-71
2022/01/31 09:12:32;;;;;;;6.43;4.67;;;5.60;99.50;;;;;;5082663;28;20206;-74
2022/01/31 09:14:59;;;;;;;7.90;5.63;;;5.70;99.90;;;;;;5089056;28;20217;-73
2022/01/31 09:17:26;;;;;;;7.27;4.83;;;5.70;99.90;;;;;;5081277;28;20689;-73
2022/01/31 09:19:53;;;;;;;7.10;4.90;;;5.80;99.90;;;;;;5085034;28;20352;-73
2022/01/31 09:22:20;;;;;;;6.53;4.83;;;5.80;99.90;;;;;;5088280;28;20721;-73
2022/01/31 09:24:50;;;;;;;5.27;4.77;;;5.80;99.90;;;;;;5085615;28;20213;-73
2022/01/31 09:27:17;;;;;;;5.13;4.63;;;5.80;99.90;;;;;;5083749;28;20209;-72
2022/01/31 09:29:46;;;;;;;5.50;4.37;;;5.80;99.90;;;;;;5093761;28;20198;-73
2022/01/31 09:32:13;;;;;;;3.60;3.20;;;5.90;99.90;;;;;;5082604;28;20202;-72
2022/01/31 09:34:41;;;;;;;4.30;3.53;;;5.90;99.90;;;;;;5083899;28;20625;-73
2022/01/31 09:37:08;;;;;;;4.00;3.33;;;5.90;99.90;;;;;;5090947;28;20218;-72
2022/01/31 09:39:36;;;;;;;3.30;2.63;;;5.90;99.90;;;;;;5086518;28;20206;-72
2022/01/31 09:42:05;;;;;;;3.80;2.73;;;6.10;99.90;;;;;;5086430;28;20229;-71
2022/01/31 09:44:48;;;;;;;2.93;2.37;;;6.20;99.90;;;;;;5089695;28;20206;-72
2022/01/31 09:47:22;;;;;;;4.27;3.27;;;6.20;99.90;;;;;;5079664;28;20210;-72
2022/01/31 09:49:50;;;;;;;6.20;3.30;;;6.30;99.90;;;;;;5093216;28;20209;-72
2022/01/31 09:52:17;;;;;;;1.90;1.70;;;6.40;99.90;;;;;;5076823;28;20263;-74
2022/01/31 09:54:48;;;;;;;2.80;2.07;;;6.40;99.90;;;;;;5080025;28;20937;-72
2022/01/31 09:57:15;;;;;;;3.03;2.40;;;6.40;99.90;;;;;;5084830;28;20270;-73
2022/01/31 09:59:42;;;;;;;3.43;2.87;;;6.70;99.90;;;;;;5081108;28;20674;-72
2022/01/31 10:02:11;;;;;;;2.60;2.40;;;6.90;99.90;;;;;;5077810;28;20603;-75
2022/01/31 10:04:44;;;;;;;3.20;2.57;;;7.00;99.90;;;;;;5088988;28;20260;-73
2022/01/31 10:07:13;;;;;;;4.10;2.20;;;7.20;99.90;;;;;;5083830;28;20310;-72
2022/01/31 10:09:43;;;;;;;3.93;1.83;;;7.70;99.90;;;;;;5078673;28;20206;-72
2022/01/31 10:12:21;;;;;;;2.53;2.10;;;7.60;91.90;;;;;;5086963;28;20665;-73
2022/01/31 10:17:34;;;;;;;2.60;1.83;;;7.30;99.90;;;;;;5090759;28;20209;-70
2022/01/31 10:20:06;;;;;;;3.23;2.53;;;7.40;99.90;;;;;;5081472;28;20210;-70
2022/01/31 10:22:35;;;;;;;4.90;2.43;;;8.60;93.50;;;;;;5090779;28;20279;-73
2022/01/31 10:25:08;;;;;;;2.90;2.70;;;10.40;1.00;;;;;;5092259;28;20217;-73
2022/01/31 10:27:36;;;;;;;2.73;1.80;;;11.70;99.90;;;;;;5090958;28;20235;-71
2022/01/31 10:30:09;;;;;;;4.20;2.40;;;10.60;1.00;;;;;;5088811;28;20630;-71
2022/01/31 10:32:39;;;;;;;2.40;1.83;;;9.30;99.90;;;;;;5072327;28;20213;-73
2022/01/31 10:35:10;;;;;;;2.37;1.77;;;8.70;99.90;;;;;;5071820;28;20712;-72
2022/01/31 10:37:40;;;;;;;3.73;2.40;;;8.50;99.90;;;;;;5072464;28;20202;-75
2022/01/31 10:43:39;;;;;;;3.40;2.87;;;8.20;99.90;;;;;;5072211;28;20602;-76
2022/01/31 10:46:11;;;;;;;3.77;2.60;;;8.00;99.90;;;;;;5071446;28;20202;-73
2022/01/31 10:54:28;;;;;;;3.00;2.53;;;8.00;99.90;;;;;;5083013;28;20221;-73
2022/01/31 10:56:57;;;;;;;2.20;1.97;;;7.90;99.90;;;;;;5081954;28;20232;-72
2022/01/31 10:59:26;;;;;;;2.63;2.20;;;8.00;99.90;;;;;;5071550;28;20202;-72
2022/01/31 11:01:54;;;;;;;4.90;2.23;;;8.00;99.90;;;;;;5082100;28;20205;-72
2022/01/31 11:04:22;;;;;;;2.80;2.53;;;8.00;99.90;;;;;;5091363;28;20218;-72
2022/01/31 11:06:59;;;;;;;3.50;2.97;;;8.20;99.90;;;;;;5082733;28;20202;-72
2022/01/31 11:09:26;;;;;;;3.97;3.40;;;8.00;99.90;;;;;;5091502;28;20640;-71
2022/01/31 11:11:53;;;;;;;3.83;2.70;;;8.40;99.90;;;;;;5091673;28;20258;-72
2022/01/31 11:14:20;;;;;;;3.70;3.37;;;8.70;99.90;;;;;;5083104;28;20263;-71
2022/01/31 11:16:49;;;;;;;3.17;2.77;;;8.80;99.90;;;;;;5084688;28;20218;-73
2022/01/31 11:19:23;;;;;;;4.17;2.90;;;8.80;99.90;;;;;;5084146;28;20279;-73
2022/01/31 11:21:59;;;;;;;4.13;2.43;;;8.80;99.90;;;;;;5079577;28;20194;-73
2022/01/31 11:24:30;;;;;;;3.77;3.00;;;8.90;99.90;;;;;;5080963;28;20240;-73
2022/01/31 11:27:03;;;;;;;4.33;3.27;;;8.70;99.90;;;;;;5088928;28;20202;-70
2022/01/31 11:29:32;;;;;;;3.13;2.63;;;9.10;99.90;;;;;;5085541;28;20211;-71
2022/01/31 11:32:00;;;;;;;3.33;2.20;;;9.00;99.90;;;;;;5081244;28;20674;-72
2022/01/31 11:34:28;;;;;;;3.50;2.80;;;9.10;99.90;;;;;;5071399;28;20206;-73
2022/01/31 11:36:57;;;;;;;3.70;3.00;;;9.20;99.90;;;;;;5071378;28;20282;-75
2022/01/31 11:39:24;;;;;;;3.00;2.70;;;9.20;99.90;;;;;;5071045;28;20232;-73
2022/01/31 11:41:55;;;;;;;2.70;2.23;;;9.10;99.90;;;;;;5071182;28;20709;-75
2022/01/31 11:44:29;;;;;;;2.90;2.60;;;8.80;99.90;;;;;;5071570;28;20681;-75
2022/01/31 11:46:58;;;;;;;3.70;2.90;;;9.10;99.90;;;;;;5081706;28;20210;-75
2022/01/31 11:49:25;;;;;;;3.07;2.77;;;9.10;99.90;;;;;;5070727;28;20206;-75
2022/01/31 11:52:06;;;;;;;3.20;2.70;;;9.20;99.90;;;;;;5071216;28;20202;-75
2022/01/31 11:54:37;;;;;;;4.20;3.27;;;9.30;99.90;;;;;;5071059;28;20206;-75
2022/01/31 11:57:14;;;;;;;2.83;2.33;;;9.30;99.90;;;;;;5070715;28;20202;-74
2022/01/31 11:59:42;;;;;;;4.60;3.93;;;9.00;99.90;;;;;;5070674;28;20255;-76
2022/01/31 12:02:14;;;;;;;3.77;3.47;;;9.00;99.90;;;;;;5070697;28;20202;-74
2022/01/31 12:04:45;;;;;;;3.20;2.70;;;9.00;99.90;;;;;;5078883;28;20647;-75
2022/01/31 12:07:40;;;;;;;2.53;2.33;;;9.10;99.90;;;;;;5081114;28;20202;-74
2022/01/31 12:10:11;;;;;;;3.17;2.53;;;8.80;99.90;;;;;;5069899;28;20639;-75
2022/01/31 12:12:50;;;;;;;3.13;2.77;;;8.80;99.90;;;;;;5070848;28;20558;-76
2022/01/31 12:15:37;;;;;;;2.33;2.13;;;9.00;99.90;;;;;;5079493;28;20670;-75
2022/01/31 12:18:40;;;;;;;3.20;2.90;;;8.90;99.90;;;;;;5078840;28;20236;-77
2022/01/31 12:23:56;;;;;;;3.37;3.03;;;8.60;99.90;;;;;;5087259;28;20731;-71
2022/01/31 12:26:49;;;;;;;2.60;1.90;;;8.60;99.90;;;;;;5077461;28;20297;-73
2022/01/31 12:29:18;;;;;;;2.10;1.87;;;8.70;99.90;;;;;;5081653;28;20275;-74
2022/01/31 12:31:48;;;;;;;1.97;1.70;;;8.90;99.90;;;;;;5085150;28;20206;-74
2022/01/31 12:34:38;;;;;;;2.10;1.73;;;8.80;99.90;;;;;;5089463;28;20209;-75
2022/01/31 12:37:15;;;;;;;3.67;1.70;;;8.80;99.90;;;;;;5090030;28;20202;-75
2022/01/31 12:40:15;;;;;;;2.50;1.97;;;9.10;99.90;;;;;;5076809;28;20301;-74
2022/01/31 12:45:53;;;;;;;1.40;1.10;;;9.00;99.90;;;;;;5079490;28;20210;-72
2022/01/31 12:48:23;;;;;;;1.40;0.97;;;9.00;99.90;;;;;;5089779;28;20206;-74
2022/01/31 12:51:09;;;;;;;1.67;1.33;;;9.10;99.90;;;;;;5084598;28;20289;-72
2022/01/31 12:53:48;;;;;;;2.93;1.00;;;9.30;99.90;;;;;;5090551;28;20205;-74
2022/01/31 12:56:24;;;;;;;2.70;1.97;;;9.30;99.90;;;;;;5090036;28;20292;-74
2022/01/31 12:58:54;;;;;;;4.97;1.90;;;9.40;99.90;;;;;;5090012;28;20205;-73
2022/01/31 13:01:23;;;;;;;1.33;1.10;;;9.50;99.90;;;;;;5090409;28;20567;-72
2022/01/31 13:03:52;;;;;;;4.67;1.67;;;9.50;99.90;;;;;;5090659;28;20290;-73
2022/01/31 13:06:31;;;;;;;8.25;2.30;;;9.60;99.90;;;;;;5089886;28;20441;-72
2022/01/31 13:09:00;;;;;;;2.80;1.10;;;9.50;99.90;;;;;;5090885;28;20205;-72
2022/01/31 13:11:28;;;;;;;3.20;1.53;;;9.20;99.90;;;;;;5089914;28;20209;-73
2022/01/31 13:14:03;;;;;;;1.90;1.67;;;9.00;99.90;;;;;;5090683;28;20263;-72
2022/01/31 13:16:42;;;;;;;1.90;1.57;;;9.00;99.90;;;;;;5090725;28;20632;-74
2022/01/31 13:19:21;;;;;;;1.40;1.30;;;9.00;99.90;;;;;;5090078;28;20632;-73
2022/01/31 13:21:50;;;;;;;1.40;1.13;;;8.80;99.90;;;;;;5090350;28;20214;-75
2022/01/31 13:24:18;;;;;;;4.33;1.57;;;8.60;99.90;;;;;;5089878;28;20272;-76
2022/01/31 13:26:55;;;;;;;1.50;1.20;;;8.60;99.90;;;;;;5089401;28;20226;-73
2022/01/31 13:29:47;;;;;;;1.10;0.93;;;9.00;99.90;;;;;;5090004;28;20621;-73
2022/01/31 13:32:20;;;;;;;0.70;0.50;;;9.20;99.90;;;;;;5083253;28;20198;-74
2022/01/31 13:34:50;;;;;;;0.70;0.70;;;9.20;99.90;;;;;;5093857;28;20206;-74